createdAt,value
2018-12-25T00:00:55.465Z,98.00
2018-12-25T00:03:24.774Z,97.80
2018-12-25T00:05:54.090Z,97.80
2018-12-25T00:08:23.402Z,97.70
2018-12-25T00:10:52.642Z,97.90
2018-12-25T00:13:22.044Z,98.10
2018-12-25T00:15:51.348Z,98.30
2018-12-25T00:18:20.635Z,98.20
2018-12-25T00:20:49.897Z,98.00
2018-12-25T00:23:19.161Z,97.90
2018-12-25T00:25:48.453Z,98.00
2018-12-25T00:28:17.725Z,98.00
2018-12-25T00:30:47.025Z,98.10
2018-12-25T00:33:16.243Z,98.10
2018-12-25T00:35:45.505Z,97.70
2018-12-25T00:38:14.691Z,97.70
2018-12-25T00:40:43.917Z,98.10
2018-12-25T00:43:13.238Z,97.70
2018-12-25T00:45:42.470Z,97.90
2018-12-25T00:48:23.710Z,97.90
2018-12-25T00:50:52.970Z,98.00
2018-12-25T00:53:22.258Z,98.10
2018-12-25T00:55:51.499Z,98.20
2018-12-25T00:58:20.761Z,98.10
2018-12-25T01:00:49.987Z,98.20
2018-12-25T01:03:19.222Z,98.20
2018-12-25T01:05:48.462Z,98.40
2018-12-25T01:08:17.722Z,98.30
2018-12-25T01:10:47.054Z,98.40
2018-12-25T01:13:16.332Z,98.30
2018-12-25T01:15:45.576Z,98.40
2018-12-25T01:18:14.805Z,98.60
2018-12-25T01:20:44.187Z,98.80
2018-12-25T01:23:13.412Z,98.90
2018-12-25T01:25:42.659Z,99.10
2018-12-25T01:28:11.986Z,98.80
2018-12-25T01:30:41.210Z,98.70
2018-12-25T01:33:10.510Z,98.90
2018-12-25T01:35:39.734Z,98.80
2018-12-25T01:38:08.942Z,98.70
2018-12-25T01:40:38.142Z,98.90
2018-12-25T01:43:07.425Z,98.90
2018-12-25T01:45:37.154Z,98.80
2018-12-25T01:48:06.362Z,98.90
2018-12-25T01:50:35.617Z,98.90
2018-12-25T01:53:04.929Z,98.80
2018-12-25T01:55:34.217Z,98.60
2018-12-25T01:58:03.585Z,98.40
2018-12-25T02:00:32.829Z,98.60
2018-12-25T02:03:02.088Z,98.60
2018-12-25T02:05:31.378Z,98.30
2018-12-25T02:08:00.634Z,98.40
2018-12-25T02:10:29.832Z,98.40
2018-12-25T02:12:59.112Z,98.60
2018-12-25T02:15:28.417Z,98.50
2018-12-25T02:17:57.620Z,98.60
2018-12-25T02:20:26.951Z,98.60
2018-12-25T02:22:56.255Z,98.80
2018-12-25T02:25:25.530Z,98.50
2018-12-25T02:27:54.785Z,98.40
2018-12-25T02:30:24.051Z,98.30
2018-12-25T02:32:53.268Z,98.40
2018-12-25T02:35:22.521Z,98.40
2018-12-25T02:37:51.820Z,98.40
2018-12-25T02:40:21.075Z,98.30
2018-12-25T02:42:50.398Z,98.60
2018-12-25T02:45:19.647Z,98.70
2018-12-25T02:47:48.862Z,98.60
2018-12-25T02:50:18.134Z,98.40
2018-12-25T02:52:47.378Z,98.50
2018-12-25T02:55:16.593Z,98.30
2018-12-25T02:57:45.859Z,98.40
2018-12-25T03:00:15.096Z,98.40
2018-12-25T03:02:44.287Z,98.50
2018-12-25T03:05:13.603Z,98.40
2018-12-25T03:07:42.863Z,98.50
2018-12-25T03:10:12.194Z,98.10
2018-12-25T03:12:41.587Z,98.30
2018-12-25T03:15:10.896Z,98.00
2018-12-25T03:17:40.114Z,97.90
2018-12-25T03:20:09.401Z,98.00
2018-12-25T03:22:38.630Z,98.30
2018-12-25T03:25:07.914Z,98.20
2018-12-25T03:27:37.203Z,98.20
2018-12-25T03:30:06.431Z,98.10
2018-12-25T03:32:35.685Z,98.20
2018-12-25T03:35:05.200Z,98.10
2018-12-25T03:37:34.419Z,98.10
2018-12-25T03:40:03.910Z,98.00
2018-12-25T03:42:33.224Z,98.30
2018-12-25T03:45:02.446Z,98.10
2018-12-25T03:47:31.662Z,98.10
2018-12-25T03:50:10.645Z,98.30
2018-12-25T03:52:32.199Z,98.30
2018-12-25T03:55:01.613Z,98.30
2018-12-25T03:57:30.944Z,98.20
2018-12-25T04:00:00.378Z,98.30
2018-12-25T04:02:29.799Z,98.40
2018-12-25T04:04:59.066Z,98.30
2018-12-25T04:07:28.312Z,98.20
2018-12-25T04:09:57.540Z,98.10
2018-12-25T04:12:26.858Z,97.80
2018-12-25T04:14:56.174Z,98.00
2018-12-25T04:17:25.564Z,98.00
2018-12-25T04:19:54.815Z,98.00
2018-12-25T04:22:24.053Z,97.80
2018-12-25T04:24:53.271Z,97.80
2018-12-25T04:27:22.586Z,97.70
2018-12-25T04:29:51.865Z,97.80
2018-12-25T04:32:21.218Z,97.80
2018-12-25T04:34:50.443Z,97.80
2018-12-25T04:37:19.661Z,97.80
2018-12-25T04:39:48.914Z,97.70
2018-12-25T04:42:18.228Z,97.70
2018-12-25T04:44:47.506Z,97.70
2018-12-25T04:47:16.745Z,97.70
2018-12-25T04:49:46.029Z,97.30
2018-12-25T04:52:15.251Z,97.20
2018-12-25T04:54:44.509Z,97.00
2018-12-25T04:57:13.795Z,96.90
2018-12-25T04:59:43.040Z,97.00
2018-12-25T05:02:12.264Z,97.00
2018-12-25T05:04:41.570Z,96.90
2018-12-25T05:07:10.858Z,97.00
2018-12-25T05:09:40.167Z,96.80
2018-12-25T05:12:09.528Z,96.80
2018-12-25T05:14:38.835Z,96.90
2018-12-25T05:17:08.083Z,96.80
2018-12-25T05:19:37.427Z,96.70
2018-12-25T05:22:06.687Z,96.30
2018-12-25T05:24:35.917Z,96.20
2018-12-25T05:27:05.175Z,96.20
2018-12-25T05:29:34.385Z,96.30
2018-12-25T05:32:03.590Z,96.60
2018-12-25T05:34:32.902Z,96.60
2018-12-25T05:37:02.191Z,96.60
2018-12-25T05:39:31.459Z,96.60
2018-12-25T05:42:00.738Z,96.40
2018-12-25T05:44:29.985Z,96.80
2018-12-25T05:46:59.206Z,96.40
2018-12-25T05:49:28.499Z,96.50
2018-12-25T05:51:57.728Z,96.60
2018-12-25T05:54:26.967Z,96.50
2018-12-25T05:56:56.285Z,96.40
2018-12-25T05:59:25.533Z,96.40
2018-12-25T06:01:54.821Z,96.60
2018-12-25T06:04:24.074Z,96.50
2018-12-25T06:06:53.282Z,96.80
2018-12-25T06:09:22.571Z,96.70
2018-12-25T06:11:51.809Z,97.00
2018-12-25T06:14:21.145Z,96.70
2018-12-25T06:16:50.376Z,96.80
2018-12-25T06:19:19.777Z,96.80
2018-12-25T06:21:50.461Z,96.80
2018-12-25T06:24:19.694Z,96.80
2018-12-25T06:26:48.940Z,96.80
2018-12-25T06:29:18.231Z,97.00
2018-12-25T06:31:47.434Z,96.80
2018-12-25T06:34:16.680Z,96.70
2018-12-25T06:36:45.895Z,96.70
2018-12-25T06:39:15.134Z,96.90
2018-12-25T06:41:44.378Z,97.00
2018-12-25T06:44:13.616Z,97.10
2018-12-25T06:46:42.842Z,97.10
2018-12-25T06:49:12.093Z,97.10
2018-12-25T06:51:41.329Z,97.20
2018-12-25T06:54:10.558Z,97.10
2018-12-25T06:56:39.823Z,97.10
2018-12-25T06:59:09.088Z,97.20
2018-12-25T07:01:38.311Z,97.10
2018-12-25T07:04:07.562Z,97.20
2018-12-25T07:06:36.820Z,96.90
2018-12-25T07:09:07.444Z,96.90
2018-12-25T07:11:36.665Z,97.10
2018-12-25T07:14:05.957Z,97.30
2018-12-25T07:16:35.180Z,97.00
2018-12-25T07:19:04.427Z,97.20
2018-12-25T07:21:35.681Z,97.40
2018-12-25T07:24:04.887Z,97.30
2018-12-25T07:26:34.153Z,97.50
2018-12-25T07:29:03.446Z,97.50
2018-12-25T07:31:32.686Z,97.50
2018-12-25T07:34:02.034Z,97.30
2018-12-25T07:36:31.270Z,97.20
2018-12-25T07:39:00.486Z,97.30
2018-12-25T07:41:29.768Z,97.10
2018-12-25T07:43:59.054Z,96.80
2018-12-25T07:46:30.299Z,96.80
2018-12-25T07:48:59.545Z,96.70
2018-12-25T07:51:28.781Z,96.90
2018-12-25T07:53:58.031Z,97.00
2018-12-25T07:56:27.273Z,96.80
2018-12-25T07:58:56.506Z,97.00
2018-12-25T08:01:25.756Z,97.00
2018-12-25T08:03:55.203Z,97.10
2018-12-25T08:06:24.482Z,97.30
2018-12-25T08:08:53.741Z,97.20
2018-12-25T08:11:23.000Z,97.20
2018-12-25T08:13:52.203Z,97.10
2018-12-25T08:16:21.477Z,97.00
2018-12-25T08:18:50.737Z,97.00
2018-12-25T08:21:29.192Z,96.90
2018-12-25T08:23:53.266Z,96.80
2018-12-25T08:26:22.556Z,96.70
2018-12-25T08:28:51.791Z,96.90
2018-12-25T08:31:21.011Z,97.00
2018-12-25T08:33:50.281Z,96.70
2018-12-25T08:36:19.605Z,96.80
2018-12-25T08:38:48.897Z,96.60
2018-12-25T08:41:18.146Z,96.70
2018-12-25T08:43:47.362Z,96.40
2018-12-25T08:46:16.594Z,96.50
2018-12-25T08:48:45.854Z,96.30
2018-12-25T08:51:15.171Z,96.70
2018-12-25T08:53:44.459Z,96.40
2018-12-25T08:56:13.789Z,96.50
2018-12-25T08:58:43.013Z,96.40
2018-12-25T09:01:12.262Z,96.70
2018-12-25T09:03:41.547Z,96.50
2018-12-25T09:06:10.851Z,96.30
2018-12-25T09:08:41.578Z,96.30
2018-12-25T09:11:10.837Z,96.30
2018-12-25T09:13:40.048Z,96.30
2018-12-25T09:16:09.269Z,96.20
2018-12-25T09:18:38.566Z,96.10
2018-12-25T09:21:07.809Z,96.00
2018-12-25T09:23:37.637Z,95.60
2018-12-25T09:26:06.889Z,95.60
2018-12-25T09:28:36.189Z,95.30
2018-12-25T09:31:05.520Z,95.40
2018-12-25T09:33:34.756Z,95.50
2018-12-25T09:36:04.122Z,95.60
2018-12-25T09:38:34.850Z,95.70
2018-12-25T09:41:04.302Z,95.60
2018-12-25T09:43:34.423Z,95.50
2018-12-25T09:46:06.149Z,95.40
2018-12-25T09:48:36.501Z,95.50
2018-12-25T09:51:05.802Z,95.40
2018-12-25T09:53:35.108Z,95.00
2018-12-25T09:56:04.484Z,95.20
2018-12-25T09:58:33.854Z,95.10
2018-12-25T10:01:03.115Z,95.00
2018-12-25T10:03:32.377Z,94.70
2018-12-25T10:06:02.363Z,94.90
2018-12-25T10:08:31.634Z,94.90
2018-12-25T10:11:01.029Z,95.00
2018-12-25T10:13:30.252Z,95.00
2018-12-25T10:15:59.958Z,94.70
2018-12-25T10:18:29.230Z,94.90
2018-12-25T10:21:02.201Z,94.90
2018-12-25T10:23:32.393Z,95.00
2018-12-25T10:26:02.458Z,94.50
2018-12-25T10:28:31.885Z,94.40
2018-12-25T10:31:01.266Z,94.60
2018-12-25T10:33:30.843Z,94.60
2018-12-25T10:36:00.190Z,94.40
2018-12-25T10:38:29.666Z,94.70
2018-12-25T10:40:59.057Z,94.50
2018-12-25T10:44:07.324Z,94.20
2018-12-25T10:46:36.861Z,94.30
2018-12-25T10:49:06.255Z,94.10
2018-12-25T10:51:35.563Z,93.90
2018-12-25T10:54:06.809Z,93.50
2018-12-25T10:56:36.226Z,93.20
2018-12-25T10:59:06.219Z,93.30
2018-12-25T11:01:37.040Z,93.50
2018-12-25T11:04:06.874Z,93.50
2018-12-25T11:06:36.415Z,93.40
2018-12-25T11:09:06.737Z,93.10
2018-12-25T11:11:36.224Z,93.00
2018-12-25T11:14:05.922Z,92.90
2018-12-25T11:16:35.175Z,93.10
2018-12-25T11:19:04.646Z,93.30
2018-12-25T11:21:33.970Z,93.30
2018-12-25T11:24:03.500Z,93.40
2018-12-25T11:26:32.730Z,93.60
2018-12-25T11:29:02.033Z,93.50
2018-12-25T11:31:31.278Z,93.90
2018-12-25T11:34:02.508Z,93.80
2018-12-25T11:36:31.508Z,93.60
2018-12-25T11:39:00.818Z,93.50
2018-12-25T11:41:30.026Z,93.70
2018-12-25T11:43:59.350Z,93.70
2018-12-25T11:46:28.584Z,93.60
2018-12-25T11:48:57.839Z,93.60
2018-12-25T11:51:27.063Z,93.40
2018-12-25T11:53:56.306Z,93.30
2018-12-25T11:56:25.587Z,93.30
2018-12-25T11:58:54.872Z,93.40
2018-12-25T12:01:24.332Z,93.40
2018-12-25T12:03:53.602Z,93.00
2018-12-25T12:06:22.887Z,92.90
2018-12-25T12:08:52.085Z,92.80
2018-12-25T12:11:21.332Z,92.60
2018-12-25T12:13:50.592Z,92.40
2018-12-25T12:16:19.894Z,92.30
2018-12-25T12:18:49.091Z,92.10
2018-12-25T12:21:18.744Z,92.40
2018-12-25T12:23:48.155Z,92.10
2018-12-25T12:26:17.453Z,92.00
2018-12-25T12:28:46.737Z,92.10
2018-12-25T12:31:16.058Z,92.10
2018-12-25T12:33:45.378Z,92.10
2018-12-25T12:36:14.805Z,91.80
2018-12-25T12:38:44.234Z,91.80
2018-12-25T12:41:13.490Z,92.00
2018-12-25T12:43:42.785Z,92.10
2018-12-25T12:46:12.071Z,91.80
2018-12-25T12:48:41.291Z,91.60
2018-12-25T12:51:10.682Z,91.60
2018-12-25T12:53:39.937Z,91.10
2018-12-25T12:56:09.163Z,91.70
2018-12-25T12:58:38.502Z,91.50
2018-12-25T13:01:07.754Z,91.60
2018-12-25T13:03:37.162Z,91.70
2018-12-25T13:06:06.446Z,91.70
2018-12-25T13:08:35.658Z,91.90
2018-12-25T13:11:04.904Z,92.20
2018-12-25T13:13:34.181Z,92.20
2018-12-25T13:16:03.399Z,92.10
2018-12-25T13:18:32.633Z,92.20
2018-12-25T13:21:01.963Z,92.20
2018-12-25T13:23:31.217Z,92.60
2018-12-25T13:26:00.555Z,92.60
2018-12-25T13:28:29.872Z,92.40
2018-12-25T13:30:59.145Z,91.80
2018-12-25T13:33:28.515Z,91.60
2018-12-25T13:35:57.874Z,91.70
2018-12-25T13:38:27.137Z,91.30
2018-12-25T13:40:56.366Z,91.50
2018-12-25T13:43:27.720Z,91.70
2018-12-25T13:45:56.979Z,91.40
2018-12-25T13:48:26.283Z,91.40
2018-12-25T13:50:55.632Z,91.30
2018-12-25T13:53:24.927Z,91.20
2018-12-25T13:55:54.157Z,91.10
2018-12-25T13:58:23.433Z,91.10
2018-12-25T14:00:52.677Z,91.00
2018-12-25T14:03:21.910Z,91.10
2018-12-25T14:05:51.202Z,90.90
2018-12-25T14:08:20.451Z,91.10
2018-12-25T14:10:49.684Z,90.70
2018-12-25T14:13:19.009Z,90.70
2018-12-25T14:15:48.333Z,90.70
2018-12-25T14:18:17.599Z,90.80
2018-12-25T14:20:46.985Z,90.90
2018-12-25T14:23:16.270Z,91.10
2018-12-25T14:25:45.482Z,91.30
2018-12-25T14:28:14.828Z,91.00
2018-12-25T14:30:44.051Z,91.00
2018-12-25T14:33:13.283Z,90.70
2018-12-25T14:35:42.615Z,90.60
2018-12-25T14:38:12.069Z,90.60
2018-12-25T14:40:41.344Z,90.60
2018-12-25T14:43:10.777Z,90.80
2018-12-25T14:45:40.023Z,90.60
2018-12-25T14:48:09.334Z,90.50
2018-12-25T14:50:38.659Z,90.00
2018-12-25T14:53:07.962Z,90.10
2018-12-25T14:55:37.260Z,90.20
2018-12-25T14:58:06.582Z,90.10
2018-12-25T15:00:35.868Z,90.70
2018-12-25T15:03:05.151Z,91.20
2018-12-25T15:05:34.561Z,91.80
2018-12-25T15:08:03.845Z,92.30
2018-12-25T15:10:33.131Z,92.70
2018-12-25T15:13:02.384Z,93.00
2018-12-25T15:15:31.628Z,93.00
2018-12-25T15:18:00.961Z,93.00
2018-12-25T15:20:30.206Z,92.90
2018-12-25T15:22:59.451Z,93.10
2018-12-25T15:25:28.793Z,93.00
2018-12-25T15:27:58.091Z,93.10
2018-12-25T15:30:27.410Z,93.10
2018-12-25T15:32:56.721Z,93.10
2018-12-25T15:35:25.973Z,93.00
2018-12-25T15:37:55.211Z,92.90
2018-12-25T15:40:24.512Z,92.70
2018-12-25T15:42:53.852Z,92.60
2018-12-25T15:45:23.127Z,92.70
2018-12-25T15:47:52.414Z,92.60
2018-12-25T15:50:21.758Z,92.70
2018-12-25T15:52:50.974Z,92.50
2018-12-25T15:55:20.316Z,93.00
2018-12-25T15:57:49.637Z,92.70
2018-12-25T16:00:19.334Z,92.50
2018-12-25T16:02:48.729Z,92.70
2018-12-25T16:05:17.982Z,92.70
2018-12-25T16:07:47.214Z,92.80
2018-12-25T16:10:16.449Z,92.80
2018-12-25T16:12:45.746Z,92.70
2018-12-25T16:15:14.972Z,92.40
2018-12-25T16:17:44.180Z,92.40
2018-12-25T16:20:13.715Z,92.20
2018-12-25T16:22:42.926Z,92.40
2018-12-25T16:25:12.199Z,92.50
2018-12-25T16:27:41.466Z,92.60
2018-12-25T16:30:10.801Z,92.40
2018-12-25T16:32:40.038Z,92.20
2018-12-25T16:35:09.306Z,91.60
2018-12-25T16:37:38.586Z,91.50
2018-12-25T16:40:09.228Z,91.80
2018-12-25T16:42:38.502Z,91.30
2018-12-25T16:45:07.818Z,91.70
2018-12-25T16:47:37.082Z,91.70
2018-12-25T16:50:06.445Z,91.40
2018-12-25T16:52:35.720Z,91.30
2018-12-25T16:55:04.953Z,91.40
2018-12-25T16:57:34.210Z,90.40
2018-12-25T17:00:03.634Z,90.20
2018-12-25T17:02:32.871Z,90.50
2018-12-25T17:05:02.234Z,91.10
2018-12-25T17:07:31.459Z,91.20
2018-12-25T17:10:00.745Z,90.80
2018-12-25T17:12:29.991Z,91.10
2018-12-25T17:14:59.225Z,90.80
2018-12-25T17:17:28.604Z,90.60
2018-12-25T17:19:57.938Z,90.40
2018-12-25T17:22:27.238Z,90.40
2018-12-25T17:24:56.484Z,90.20
2018-12-25T17:27:25.731Z,90.20
2018-12-25T17:29:55.065Z,90.20
2018-12-25T17:32:24.291Z,90.20
2018-12-25T17:34:53.549Z,90.30
2018-12-25T17:37:22.770Z,90.70
2018-12-25T17:39:52.068Z,90.90
2018-12-25T17:42:21.429Z,91.10
2018-12-25T17:44:50.708Z,91.20
2018-12-25T17:47:20.030Z,91.30
2018-12-25T17:49:49.412Z,91.40
2018-12-25T17:52:18.657Z,91.40
2018-12-25T17:54:47.964Z,91.50
2018-12-25T17:57:17.291Z,91.20
2018-12-25T17:59:46.527Z,91.20
2018-12-25T18:02:15.751Z,91.00
2018-12-25T18:04:44.985Z,91.00
2018-12-25T18:07:14.213Z,90.70
2018-12-25T18:09:43.534Z,90.70
2018-12-25T18:12:12.902Z,90.70
2018-12-25T18:14:42.136Z,90.80
2018-12-25T18:17:18.651Z,90.90
2018-12-25T18:19:42.410Z,91.00
2018-12-25T18:22:11.636Z,91.00
2018-12-25T18:24:40.885Z,91.20
2018-12-25T18:27:10.223Z,91.60
2018-12-25T18:29:39.441Z,91.40
2018-12-25T18:32:08.746Z,91.30
2018-12-25T18:34:38.048Z,91.40
2018-12-25T18:37:07.354Z,91.60
2018-12-25T18:39:36.702Z,91.50
2018-12-25T18:42:05.989Z,91.40
2018-12-25T18:44:35.356Z,91.50
2018-12-25T18:47:04.576Z,91.30
2018-12-25T18:49:33.869Z,91.30
2018-12-25T18:52:03.157Z,91.40
2018-12-25T18:54:32.385Z,91.30
2018-12-25T18:57:01.676Z,91.20
2018-12-25T18:59:30.897Z,91.00
2018-12-25T19:02:00.152Z,91.20
2018-12-25T19:04:29.430Z,91.30
2018-12-25T19:06:58.674Z,90.90
2018-12-25T19:09:27.907Z,91.10
2018-12-25T19:11:57.143Z,91.20
2018-12-25T19:14:26.394Z,91.20
2018-12-25T19:16:55.669Z,91.40
2018-12-25T19:19:24.921Z,91.30
2018-12-25T19:21:54.179Z,91.20
2018-12-25T19:24:23.458Z,91.40
2018-12-25T19:26:52.755Z,91.30
2018-12-25T19:29:21.997Z,90.90
2018-12-25T19:31:51.438Z,90.90
2018-12-25T19:34:20.699Z,90.90
2018-12-25T19:36:49.963Z,90.90
2018-12-25T19:39:19.334Z,90.90
2018-12-25T19:41:48.722Z,91.00
2018-12-25T19:44:18.023Z,91.10
2018-12-25T19:46:47.267Z,91.30
2018-12-25T19:49:16.599Z,91.30
2018-12-25T19:51:45.931Z,91.60
2018-12-25T19:54:16.701Z,91.60
2018-12-25T19:56:45.986Z,92.00
2018-12-25T19:59:15.422Z,92.10
2018-12-25T20:01:44.713Z,92.40
2018-12-25T20:04:30.957Z,92.20
2018-12-25T20:07:52.015Z,92.30
2018-12-25T20:11:02.325Z,92.60
2018-12-25T20:13:55.338Z,92.70
2018-12-25T20:17:14.499Z,92.80
2018-12-25T20:20:30.954Z,92.50
2018-12-25T20:23:53.886Z,92.70
2018-12-25T20:27:05.253Z,92.40
2018-12-25T20:30:28.057Z,92.60
2018-12-25T20:33:41.489Z,92.60
2018-12-25T20:36:51.153Z,92.60
2018-12-25T20:40:04.394Z,92.50
2018-12-25T20:43:24.974Z,92.70
2018-12-25T20:46:46.272Z,92.60
2018-12-25T20:50:02.756Z,92.50
2018-12-25T20:53:04.766Z,92.70
2018-12-25T20:56:22.746Z,92.60
2018-12-25T20:59:36.309Z,92.60
2018-12-25T21:02:43.341Z,92.40
2018-12-25T21:05:36.674Z,92.40
2018-12-25T21:08:42.457Z,92.30
2018-12-25T21:11:43.370Z,92.20
2018-12-25T21:15:09.347Z,92.30
2018-12-25T21:18:12.587Z,92.10
2018-12-25T21:21:13.502Z,92.10
2018-12-25T21:24:18.427Z,92.20
2018-12-25T21:27:23.567Z,92.30
2018-12-25T21:29:52.834Z,92.40
2018-12-25T21:32:22.121Z,92.50
2018-12-25T21:34:53.603Z,92.20
2018-12-25T21:37:22.871Z,92.30
2018-12-25T21:39:52.574Z,92.30
2018-12-25T21:42:21.926Z,92.30
2018-12-25T21:44:51.298Z,92.30
2018-12-25T21:47:21.651Z,92.50
2018-12-25T21:49:50.972Z,92.60
2018-12-25T21:52:20.870Z,92.60
2018-12-25T21:54:50.572Z,92.50
2018-12-25T21:57:19.976Z,92.50
2018-12-25T21:59:49.269Z,92.40
2018-12-25T22:02:18.741Z,92.50
2018-12-25T22:04:48.130Z,92.70
2018-12-25T22:07:17.454Z,92.60
2018-12-25T22:09:46.719Z,92.70
2018-12-25T22:12:16.506Z,92.50
2018-12-25T22:14:45.783Z,92.70
2018-12-25T22:17:15.047Z,92.50
2018-12-25T22:19:45.313Z,92.10
2018-12-25T22:22:14.573Z,92.10
2018-12-25T22:24:43.806Z,92.10
2018-12-25T22:27:13.072Z,92.10
2018-12-25T22:29:42.313Z,92.30
2018-12-25T22:32:11.610Z,92.10
2018-12-25T22:34:40.885Z,92.10
2018-12-25T22:37:10.231Z,92.20
2018-12-25T22:39:39.566Z,92.20
2018-12-25T22:42:08.937Z,92.20
2018-12-25T22:44:38.204Z,92.30
2018-12-25T22:47:07.459Z,92.40
2018-12-25T22:49:36.745Z,92.10
2018-12-25T22:52:06.028Z,92.10
2018-12-25T22:54:35.390Z,91.80
2018-12-25T22:57:04.638Z,92.00
2018-12-25T22:59:36.220Z,92.10
2018-12-25T23:02:05.731Z,91.90
2018-12-25T23:04:35.055Z,92.10
2018-12-25T23:07:04.441Z,92.00
2018-12-25T23:09:33.740Z,92.10
2018-12-25T23:12:03.114Z,92.20
2018-12-25T23:14:32.418Z,92.40
2018-12-25T23:17:01.662Z,92.20
2018-12-25T23:19:30.992Z,92.40
2018-12-25T23:22:00.274Z,92.10
2018-12-25T23:24:29.542Z,92.10
2018-12-25T23:26:58.798Z,92.10
2018-12-25T23:29:28.041Z,92.10
2018-12-25T23:31:57.397Z,92.40
2018-12-25T23:34:26.719Z,92.50
2018-12-25T23:36:55.954Z,92.40
2018-12-25T23:39:25.421Z,92.30
2018-12-25T23:41:54.743Z,92.10
2018-12-25T23:44:24.019Z,92.20
2018-12-25T23:46:53.262Z,92.20
2018-12-25T23:49:22.582Z,92.00
2018-12-25T23:51:51.834Z,91.90
2018-12-25T23:54:21.055Z,92.00
2018-12-25T23:56:50.317Z,92.10
2018-12-25T23:59:19.531Z,92.00
